Time;durP1;ratioP1;P1;durP2;ratioP2;P2;SDS_P1;SDS_P2;PMS_P1;PMS_P2;Temp;Humidity;BMP_temperature;BMP_pressure;BME280_temperature;BME280_humidity;BME280_pressure;Samples;Min_cycle;Max_cycle;Signal;HPM_P1;HPM_P2
2022/05/22 00:00:19;;;;;;;89.40;52.95;;;20.80;61.60;;;;;;4921510;28;90227;-39
2022/05/22 00:02:46;;;;;;;89.15;53.00;;;20.80;61.40;;;;;;4930473;28;90084;-40
2022/05/22 00:05:15;;;;;;;88.80;52.83;;;20.80;61.50;;;;;;4917813;28;93306;-38
2022/05/22 00:07:41;;;;;;;89.13;53.08;;;20.80;61.80;;;;;;4920624;28;90106;-39
2022/05/22 00:10:08;;;;;;;90.45;53.17;;;20.80;62.20;;;;;;4924198;28;95630;-38
2022/05/22 00:12:33;;;;;;;88.35;52.67;;;20.80;61.60;;;;;;4926959;28;90716;-38
2022/05/22 00:14:59;;;;;;;90.97;53.33;;;20.70;61.60;;;;;;4924306;28;89582;-37
2022/05/22 00:17:25;;;;;;;89.10;52.97;;;20.70;61.90;;;;;;4927765;28;90906;-38
2022/05/22 00:19:50;;;;;;;89.00;52.78;;;20.70;61.80;;;;;;4925755;28;89903;-38
2022/05/22 00:22:17;;;;;;;88.63;52.72;;;20.70;61.90;;;;;;4920946;28;91853;-42
2022/05/22 00:24:43;;;;;;;94.75;53.05;;;20.70;62.00;;;;;;4926996;28;90540;-42
2022/05/22 00:27:08;;;;;;;88.95;52.83;;;20.70;61.90;;;;;;4923394;28;89961;-40
2022/05/22 00:29:35;;;;;;;89.57;52.88;;;20.70;61.70;;;;;;4922584;28;91176;-39
2022/05/22 00:32:00;;;;;;;89.10;52.75;;;20.60;61.90;;;;;;4918650;28;90612;-39
2022/05/22 00:34:26;;;;;;;89.15;52.92;;;20.60;61.90;;;;;;4919734;28;89168;-40
2022/05/22 00:36:52;;;;;;;88.68;52.53;;;20.60;62.20;;;;;;4918109;28;90687;-41
2022/05/22 00:39:18;;;;;;;89.68;52.75;;;20.60;62.10;;;;;;4921708;28;91505;-38
2022/05/22 00:41:52;;;;;;;89.72;53.15;;;20.60;61.80;;;;;;4927380;28;91053;-40
2022/05/22 00:44:18;;;;;;;87.70;52.63;;;20.60;61.90;;;;;;4924525;28;90899;-40
2022/05/22 00:46:44;;;;;;;88.82;53.30;;;20.60;62.10;;;;;;4929981;28;90020;-46
2022/05/22 00:49:21;;;;;;;88.50;52.95;;;20.50;62.10;;;;;;4928807;28;91219;-41
2022/05/22 00:52:09;;;;;;;88.60;52.97;;;20.50;62.10;;;;;;4925104;28;90183;-39
2022/05/22 00:54:44;;;;;;;89.68;53.05;;;20.50;61.80;;;;;;4921216;28;90268;-40
2022/05/22 00:57:32;;;;;;;89.30;52.90;;;20.50;62.10;;;;;;4923848;28;90683;-38
2022/05/22 01:00:14;;;;;;;89.43;52.72;;;20.50;62.10;;;;;;4920021;28;93757;-39
2022/05/22 01:05:24;;;;;;;88.18;52.72;;;20.50;63.00;;;;;;4925790;28;89814;-38
2022/05/22 01:07:50;;;;;;;87.75;52.65;;;20.50;62.10;;;;;;4924685;28;90801;-39
2022/05/22 01:10:17;;;;;;;88.82;52.65;;;20.50;62.10;;;;;;4929552;28;91087;-38
2022/05/22 01:12:45;;;;;;;88.40;52.53;;;20.50;62.10;;;;;;4918901;28;90103;-38
2022/05/22 01:15:13;;;;;;;88.60;52.72;;;20.50;62.10;;;;;;4927050;28;89933;-39
2022/05/22 01:17:44;;;;;;;87.80;52.67;;;20.40;62.20;;;;;;4924268;28;89983;-39
2022/05/22 01:20:11;;;;;;;88.07;52.83;;;20.40;62.10;;;;;;4926488;28;90860;-41
2022/05/22 01:22:36;;;;;;;88.10;52.78;;;20.40;62.00;;;;;;4925529;28;90265;-40
2022/05/22 01:25:03;;;;;;;89.30;53.05;;;20.40;62.40;;;;;;4924825;28;90651;-38
2022/05/22 01:27:28;;;;;;;87.80;52.78;;;20.30;62.40;;;;;;4923423;28;89959;-40
2022/05/22 01:30:13;;;;;;;87.55;52.60;;;20.40;62.30;;;;;;4919887;28;90569;-40
2022/05/22 01:32:41;;;;;;;87.93;52.95;;;20.30;62.20;;;;;;4921609;28;90920;-39
2022/05/22 01:35:08;;;;;;;88.30;52.92;;;20.30;62.30;;;;;;4921817;28;92083;-41
2022/05/22 01:37:35;;;;;;;87.43;52.75;;;20.30;62.20;;;;;;4926963;28;89545;-39
2022/05/22 01:40:00;;;;;;;88.57;52.60;;;20.30;62.20;;;;;;4921156;28;91093;-41
2022/05/22 01:42:26;;;;;;;87.32;52.60;;;20.30;62.70;;;;;;4928650;28;90322;-39
2022/05/22 01:44:51;;;;;;;88.10;52.65;;;20.20;62.30;;;;;;4925454;28;92338;-37
2022/05/22 01:47:17;;;;;;;87.80;52.67;;;20.20;62.70;;;;;;4924798;28;90214;-39
2022/05/22 01:49:42;;;;;;;87.72;52.95;;;20.20;62.60;;;;;;4922815;28;90708;-38
2022/05/22 01:52:09;;;;;;;87.53;52.83;;;20.20;62.70;;;;;;4931618;28;90782;-40
2022/05/22 01:54:34;;;;;;;88.70;52.83;;;20.20;62.70;;;;;;4919930;28;89819;-39
2022/05/22 01:57:00;;;;;;;87.95;53.03;;;20.20;62.60;;;;;;4931608;28;93621;-38
2022/05/22 01:59:26;;;;;;;88.13;52.83;;;20.10;62.80;;;;;;4916005;28;91081;-39
2022/05/22 02:01:52;;;;;;;86.85;52.60;;;20.10;62.60;;;;;;4924909;28;89757;-40
2022/05/22 02:04:18;;;;;;;88.72;52.97;;;20.20;62.80;;;;;;4927597;28;92495;-39
2022/05/22 02:09:28;;;;;;;88.43;52.83;;;20.10;62.50;;;;;;4926658;28;89887;-39
2022/05/22 02:11:54;;;;;;;87.60;52.83;;;20.10;63.00;;;;;;4927618;28;90219;-39
2022/05/22 02:14:20;;;;;;;87.68;52.83;;;20.00;62.90;;;;;;4917782;28;93925;-39
2022/05/22 02:16:45;;;;;;;87.82;52.65;;;20.00;62.70;;;;;;4922507;28;90493;-39
2022/05/22 02:19:11;;;;;;;88.03;52.92;;;20.00;62.80;;;;;;4924578;28;90671;-37
2022/05/22 02:21:37;;;;;;;87.75;52.60;;;20.00;62.90;;;;;;4925753;28;91491;-40
2022/05/22 02:24:03;;;;;;;88.88;52.70;;;20.00;62.70;;;;;;4923665;28;90912;-41
2022/05/22 02:26:28;;;;;;;86.65;52.50;;;20.00;62.80;;;;;;4925407;28;89974;-39
2022/05/22 02:28:54;;;;;;;86.90;52.42;;;20.00;62.50;;;;;;4915281;28;94744;-39
2022/05/22 02:31:20;;;;;;;87.20;52.42;;;19.90;62.70;;;;;;4921043;28;89955;-40
2022/05/22 02:33:45;;;;;;;88.75;52.85;;;19.90;63.10;;;;;;4922381;28;89489;-40
2022/05/22 02:36:13;;;;;;;88.22;52.72;;;19.90;63.10;;;;;;4932675;28;89951;-39
2022/05/22 02:38:40;;;;;;;87.05;52.72;;;19.90;62.90;;;;;;4931650;28;92094;-41
2022/05/22 02:41:17;;;;;;;87.35;52.80;;;19.90;63.00;;;;;;4914097;28;98954;-39
2022/05/22 02:43:43;;;;;;;87.47;52.55;;;19.90;62.90;;;;;;4926915;28;91389;-38
2022/05/22 02:46:14;;;;;;;88.38;52.70;;;19.90;63.10;;;;;;4916018;28;97441;-39
2022/05/22 02:48:40;;;;;;;86.73;52.37;;;19.90;63.00;;;;;;4922968;28;90701;-40
2022/05/22 02:51:09;;;;;;;87.70;52.72;;;19.90;62.90;;;;;;4924101;28;90311;-39
2022/05/22 02:53:34;;;;;;;88.55;52.53;;;19.90;63.00;;;;;;4920896;28;90288;-39
2022/05/22 02:56:27;;;;;;;86.72;52.60;;;19.90;62.80;;;;;;4922132;28;94935;-40
2022/05/22 02:58:53;;;;;;;88.40;53.25;;;19.80;63.10;;;;;;4915269;28;91332;-40
2022/05/22 03:01:19;;;;;;;87.38;52.78;;;19.80;62.90;;;;;;4922484;28;90506;-38
2022/05/22 03:03:44;;;;;;;88.57;52.60;;;19.80;63.20;;;;;;4920290;28;94241;-39
2022/05/22 03:08:54;;;;;;;87.57;52.42;;;19.80;63.10;;;;;;4924581;28;90416;-38
2022/05/22 03:11:20;;;;;;;87.00;52.70;;;19.70;63.10;;;;;;4922742;28;91047;-39
2022/05/22 03:13:46;;;;;;;87.00;52.65;;;19.70;63.30;;;;;;4926168;28;90920;-39
2022/05/22 03:16:11;;;;;;;86.63;52.47;;;19.80;62.90;;;;;;4928042;28;94193;-38
2022/05/22 03:18:37;;;;;;;87.03;52.63;;;19.70;63.00;;;;;;4921508;28;90112;-40
2022/05/22 03:21:08;;;;;;;91.43;53.05;;;19.80;62.80;;;;;;4914056;28;90106;-38
2022/05/22 03:23:34;;;;;;;;;;;19.70;63.10;;;;;;4925699;28;89924;-39
2022/05/22 03:25:59;;;;;;;86.82;52.53;;;19.70;62.90;;;;;;4928766;28;89505;-39
2022/05/22 03:28:25;;;;;;;87.03;52.65;;;19.70;63.00;;;;;;4922018;28;90396;-42
2022/05/22 03:30:50;;;;;;;87.32;52.58;;;19.70;62.90;;;;;;4924111;28;89749;-38
2022/05/22 03:33:16;;;;;;;87.30;52.55;;;19.70;62.90;;;;;;4922747;28;91360;-38
2022/05/22 03:35:42;;;;;;;87.22;52.85;;;19.70;63.00;;;;;;4925365;28;91914;-38
2022/05/22 03:38:08;;;;;;;87.93;52.53;;;19.70;62.80;;;;;;4925769;28;90003;-40
2022/05/22 03:40:42;;;;;;;87.40;52.95;;;19.70;62.70;;;;;;4920351;28;91217;-39
2022/05/22 03:43:07;;;;;;;86.43;52.33;;;19.70;62.80;;;;;;4928159;28;90741;-39
2022/05/22 03:45:33;;;;;;;87.75;53.05;;;19.60;62.90;;;;;;4926276;28;90383;-38
2022/05/22 03:47:58;;;;;;;87.32;52.42;;;19.60;63.20;;;;;;4930530;28;90614;-37
2022/05/22 03:50:25;;;;;;;86.28;52.65;;;19.60;63.10;;;;;;4923125;28;89992;-39
2022/05/22 03:52:51;;;;;;;86.30;52.33;;;19.60;63.10;;;;;;4927950;28;90204;-37
2022/05/22 03:55:17;;;;;;;87.70;52.65;;;19.60;63.20;;;;;;4929207;28;89676;-40
2022/05/22 03:57:47;;;;;;;88.10;52.78;;;19.60;63.10;;;;;;4929527;28;89738;-40
2022/05/22 04:00:15;;;;;;;86.43;52.53;;;19.60;63.00;;;;;;4912402;28;93316;-39
2022/05/22 04:02:41;;;;;;;86.63;52.55;;;19.60;62.80;;;;;;4920113;28;90602;-40
2022/05/22 04:05:08;;;;;;;86.65;52.60;;;19.60;62.90;;;;;;4931527;28;90040;-42
2022/05/22 04:07:42;;;;;;;86.18;52.22;;;19.60;63.00;;;;;;4931651;28;90233;-37
2022/05/22 04:10:09;;;;;;;86.40;52.72;;;19.60;62.90;;;;;;4926182;28;90349;-40
2022/05/22 04:12:36;;;;;;;86.90;52.40;;;19.60;63.10;;;;;;4924591;28;96178;-37
2022/05/22 04:15:03;;;;;;;86.68;52.67;;;19.60;62.80;;;;;;4924983;28;89868;-40
2022/05/22 04:17:28;;;;;;;86.82;52.80;;;19.60;62.90;;;;;;4925527;28;88949;-39
2022/05/22 04:19:54;;;;;;;85.97;52.15;;;19.60;62.90;;;;;;4928105;28;91123;-39
2022/05/22 04:22:19;;;;;;;88.40;52.65;;;19.60;62.80;;;;;;4930121;28;89993;-39
2022/05/22 04:27:29;;;;;;;86.65;52.45;;;19.60;63.00;;;;;;4932744;28;89673;-39
2022/05/22 04:29:55;;;;;;;87.35;52.85;;;19.60;62.90;;;;;;4919264;28;90004;-41
2022/05/22 04:32:21;;;;;;;86.05;52.45;;;19.60;62.70;;;;;;4923488;28;91542;-39
2022/05/22 04:34:46;;;;;;;86.63;52.55;;;19.60;62.50;;;;;;4921349;28;90280;-39
2022/05/22 04:37:12;;;;;;;88.65;52.22;;;19.60;62.30;;;;;;4921399;28;90791;-43
2022/05/22 04:39:38;;;;;;;85.47;52.20;;;19.60;62.70;;;;;;4923224;28;90208;-38
2022/05/22 04:42:04;;;;;;;85.72;52.30;;;19.60;62.70;;;;;;4923551;28;89439;-40
2022/05/22 04:44:30;;;;;;;86.25;52.58;;;19.60;62.50;;;;;;4922629;28;89964;-40
2022/05/22 04:46:58;;;;;;;86.60;52.75;;;19.60;62.70;;;;;;4930227;28;90311;-40
2022/05/22 04:49:24;;;;;;;86.88;52.65;;;19.60;62.70;;;;;;4922743;28;91271;-38
2022/05/22 04:51:49;;;;;;;89.30;52.75;;;19.60;62.70;;;;;;4924140;28;89876;-39
2022/05/22 04:54:15;;;;;;;87.60;52.45;;;19.60;62.30;;;;;;4924848;28;92558;-38
2022/05/22 04:56:40;;;;;;;86.60;52.47;;;19.70;62.10;;;;;;4925330;28;90084;-39
2022/05/22 04:59:06;;;;;;;87.30;52.65;;;19.70;62.30;;;;;;4920963;28;91124;-38
2022/05/22 05:01:32;;;;;;;87.43;53.03;;;19.70;62.20;;;;;;4914888;28;90825;-40
2022/05/22 05:03:57;;;;;;;86.68;52.60;;;19.70;62.10;;;;;;4925889;28;89849;-40
2022/05/22 05:06:23;;;;;;;88.75;52.45;;;19.70;62.10;;;;;;4925945;28;90064;-37
2022/05/22 05:08:48;;;;;;;87.15;52.75;;;19.70;61.90;;;;;;4926471;28;89671;-38
2022/05/22 05:11:14;;;;;;;88.50;52.83;;;19.70;62.20;;;;;;4920069;28;89835;-39
2022/05/22 05:13:40;;;;;;;85.65;52.35;;;19.70;61.90;;;;;;4927730;28;90794;-39
2022/05/22 05:16:07;;;;;;;86.85;52.75;;;19.70;61.90;;;;;;4922155;28;90060;-40
2022/05/22 05:18:35;;;;;;;86.22;52.42;;;19.70;61.60;;;;;;4917531;28;90115;-41
2022/05/22 05:21:05;;;;;;;86.57;52.53;;;19.70;61.60;;;;;;4922997;28;89974;-39
2022/05/22 05:23:31;;;;;;;86.78;52.60;;;19.70;62.00;;;;;;4919866;28;94575;-39
2022/05/22 05:25:57;;;;;;;85.93;52.53;;;19.70;61.60;;;;;;4927729;28;89746;-39
2022/05/22 05:28:23;;;;;;;87.13;52.75;;;19.80;61.50;;;;;;4917043;28;99294;-39
2022/05/22 05:30:48;;;;;;;86.03;52.55;;;19.80;61.60;;;;;;4911829;28;90894;-39
2022/05/22 05:33:14;;;;;;;87.63;52.65;;;19.80;61.40;;;;;;4916136;28;92308;-38
2022/05/22 05:35:41;;;;;;;86.32;52.63;;;19.80;61.30;;;;;;4920148;28;90518;-38
2022/05/22 05:38:07;;;;;;;85.55;52.20;;;19.80;61.20;;;;;;4925425;28;91532;-38
2022/05/22 05:40:34;;;;;;;86.80;52.60;;;19.90;61.20;;;;;;4924869;28;89849;-38
2022/05/22 05:43:00;;;;;;;87.55;52.70;;;19.90;61.30;;;;;;4925605;28;90778;-39
2022/05/22 05:45:27;;;;;;;87.57;52.63;;;19.90;61.10;;;;;;4917915;28;89761;-41
2022/05/22 05:47:53;;;;;;;86.38;52.55;;;19.90;61.00;;;;;;4925146;28;90133;-39
2022/05/22 05:50:21;;;;;;;86.93;52.78;;;20.00;60.90;;;;;;4915696;28;90553;-38
2022/05/22 05:52:49;;;;;;;88.70;52.75;;;20.00;60.90;;;;;;4924645;28;89906;-38
2022/05/22 05:55:15;;;;;;;86.22;52.72;;;20.00;60.90;;;;;;4925760;28;89285;-39
2022/05/22 05:57:41;;;;;;;86.60;52.65;;;20.00;60.80;;;;;;4925081;28;90260;-41
2022/05/22 06:00:09;;;;;;;88.53;52.67;;;20.00;60.70;;;;;;4908602;28;90516;-40
2022/05/22 06:02:34;;;;;;;88.03;52.85;;;20.00;60.50;;;;;;4924677;28;91880;-38
2022/05/22 06:05:00;;;;;;;87.22;52.50;;;20.00;60.80;;;;;;4937374;28;92139;-39
2022/05/22 06:07:26;;;;;;;87.40;52.95;;;20.10;60.50;;;;;;4926071;28;89915;-38
2022/05/22 06:09:52;;;;;;;87.72;52.67;;;20.10;60.40;;;;;;4926926;28;92406;-39
2022/05/22 06:12:18;;;;;;;86.68;52.58;;;20.20;60.10;;;;;;4924163;28;90197;-38
2022/05/22 06:14:43;;;;;;;87.70;52.53;;;20.20;60.30;;;;;;4921234;28;93436;-38
2022/05/22 06:17:09;;;;;;;88.15;52.75;;;20.20;60.80;;;;;;4927671;28;90643;-39
2022/05/22 06:19:59;;;;;;;87.00;52.78;;;20.30;60.00;;;;;;4924064;28;93713;-38
2022/05/22 06:22:27;;;;;;;87.07;52.70;;;20.30;60.00;;;;;;4924246;28;91629;-39
2022/05/22 06:24:53;;;;;;;86.93;52.45;;;20.30;60.00;;;;;;4914681;28;90326;-38
2022/05/22 06:27:19;;;;;;;87.32;52.65;;;20.30;59.80;;;;;;4923032;28;91945;-40
2022/05/22 06:29:45;;;;;;;87.22;52.45;;;20.30;59.90;;;;;;4914635;28;91156;-38
2022/05/22 06:32:12;;;;;;;87.53;52.83;;;20.30;60.00;;;;;;4921726;28;89661;-39
2022/05/22 06:34:41;;;;;;;88.93;52.65;;;20.30;60.00;;;;;;4919064;28;89562;-39
2022/05/22 06:37:09;;;;;;;88.18;52.88;;;20.30;60.00;;;;;;4923663;28;91778;-40
2022/05/22 06:39:51;;;;;;;89.90;52.97;;;20.30;59.80;;;;;;4921110;28;90212;-41
2022/05/22 06:42:28;;;;;;;92.32;52.97;;;20.30;60.00;;;;;;4916066;28;91174;-39
2022/05/22 06:45:00;;;;;;;88.57;53.03;;;20.30;60.10;;;;;;4928666;28;89246;-39
2022/05/22 06:47:28;;;;;;;89.13;52.75;;;20.40;59.80;;;;;;4931765;28;91539;-43
2022/05/22 06:49:54;;;;;;;88.50;52.70;;;20.40;59.80;;;;;;4922943;28;90131;-39
2022/05/22 06:52:20;;;;;;;88.63;52.58;;;20.30;59.80;;;;;;4918468;28;91171;-38
2022/05/22 06:54:46;;;;;;;88.20;52.90;;;20.30;59.60;;;;;;4921755;28;90767;-40
2022/05/22 06:57:18;;;;;;;87.35;52.83;;;20.30;59.90;;;;;;4922478;28;90075;-39
2022/05/22 06:59:47;;;;;;;87.30;52.67;;;20.40;59.60;;;;;;4922549;28;91276;-40
2022/05/22 07:02:14;;;;;;;89.50;53.45;;;20.40;59.80;;;;;;4921614;28;90169;-40
2022/05/22 07:04:40;;;;;;;89.43;53.55;;;20.40;59.70;;;;;;4921220;28;92920;-39
2022/05/22 07:07:06;;;;;;;89.25;52.75;;;20.40;59.90;;;;;;4920192;28;90622;-40
2022/05/22 07:09:32;;;;;;;90.93;53.10;;;20.40;59.80;;;;;;4919988;28;90553;-38
2022/05/22 07:11:59;;;;;;;90.00;53.20;;;20.50;59.70;;;;;;4925300;28;89819;-42
2022/05/22 07:14:27;;;;;;;88.22;52.85;;;20.50;59.60;;;;;;4926445;28;99245;-40
2022/05/22 07:16:54;;;;;;;90.47;53.13;;;20.50;59.50;;;;;;4927455;28;91096;-39
2022/05/22 07:19:20;;;;;;;88.35;52.85;;;20.50;59.50;;;;;;4923084;28;90152;-38
2022/05/22 07:21:48;;;;;;;88.72;53.10;;;20.60;59.70;;;;;;4920150;28;95688;-37
2022/05/22 07:24:14;;;;;;;88.70;52.95;;;20.60;60.00;;;;;;4923323;28;92650;-39
2022/05/22 07:26:40;;;;;;;90.15;52.92;;;20.60;59.50;;;;;;4933762;28;90251;-39
2022/05/22 07:29:06;;;;;;;88.63;53.20;;;20.60;59.50;;;;;;4932320;28;92973;-40
2022/05/22 07:31:34;;;;;;;92.07;53.25;;;20.60;59.60;;;;;;4918589;28;91344;-39
2022/05/22 07:34:00;;;;;;;88.28;52.95;;;20.60;59.40;;;;;;4927136;28;89449;-38
2022/05/22 07:36:25;;;;;;;89.32;53.30;;;20.60;59.40;;;;;;4927110;28;90367;-38
2022/05/22 07:38:51;;;;;;;88.45;53.30;;;20.60;59.20;;;;;;4928133;28;90664;-39
2022/05/22 07:41:18;;;;;;;88.78;53.20;;;20.70;59.30;;;;;;4931143;28;91357;-39
2022/05/22 07:43:44;;;;;;;88.30;53.13;;;20.70;59.20;;;;;;4931422;28;90194;-39
2022/05/22 07:46:13;;;;;;;89.72;53.38;;;20.70;59.10;;;;;;4923716;28;91995;-38
2022/05/22 07:48:41;;;;;;;89.63;53.40;;;20.80;59.20;;;;;;4938136;28;90109;-39
2022/05/22 07:51:08;;;;;;;88.97;53.38;;;20.80;59.20;;;;;;4919823;28;91961;-40
2022/05/22 07:53:34;;;;;;;90.38;53.65;;;20.80;59.30;;;;;;4923068;28;91301;-40
2022/05/22 07:56:02;;;;;;;88.60;53.22;;;20.90;58.90;;;;;;4924179;28;90061;-38
2022/05/22 07:58:28;;;;;;;89.18;53.30;;;20.90;59.20;;;;;;4928292;28;90005;-40
2022/05/22 08:00:56;;;;;;;89.15;53.35;;;20.90;58.90;;;;;;4919907;28;89961;-41
2022/05/22 08:03:21;;;;;;;88.50;53.20;;;20.90;58.90;;;;;;4927123;28;90348;-39
2022/05/22 08:05:47;;;;;;;91.40;53.30;;;20.90;58.70;;;;;;4921950;28;91179;-38
2022/05/22 08:08:13;;;;;;;89.43;53.47;;;21.00;58.70;;;;;;4926360;28;92840;-38
2022/05/22 08:10:40;;;;;;;89.07;53.28;;;21.00;58.80;;;;;;4925768;28;91970;-38
2022/05/22 08:13:07;;;;;;;88.75;53.38;;;21.00;58.70;;;;;;4927377;28;89613;-41
2022/05/22 08:15:35;;;;;;;89.30;53.35;;;21.00;58.70;;;;;;4927724;28;90574;-40
2022/05/22 08:18:01;;;;;;;90.15;53.28;;;21.10;58.70;;;;;;4945000;28;93413;-39
2022/05/22 08:20:28;;;;;;;89.47;53.50;;;21.10;58.50;;;;;;4929397;28;89480;-40
2022/05/22 08:22:59;;;;;;;91.35;53.30;;;21.10;58.40;;;;;;4925519;28;91536;-39
2022/05/22 08:25:27;;;;;;;89.18;53.28;;;21.10;58.50;;;;;;4924066;28;89960;-39
2022/05/22 08:27:54;;;;;;;89.38;53.55;;;21.10;58.40;;;;;;4926457;28;95860;-38
2022/05/22 08:30:24;;;;;;;90.60;53.78;;;21.20;58.50;;;;;;4919929;28;91663;-38
2022/05/22 08:32:51;;;;;;;90.70;53.60;;;21.20;57.90;;;;;;4919397;28;90003;-39
2022/05/22 08:35:24;;;;;;;91.20;53.53;;;21.30;58.20;;;;;;4917960;28;90383;-38
2022/05/22 08:37:50;;;;;;;89.45;53.55;;;21.30;57.90;;;;;;4929544;28;89805;-40
2022/05/22 08:40:18;;;;;;;89.45;53.35;;;21.30;57.90;;;;;;4922665;28;90459;-38
2022/05/22 08:42:48;;;;;;;90.57;53.90;;;21.40;58.20;;;;;;4923728;28;92818;-39
2022/05/22 08:45:20;;;;;;;91.70;54.13;;;21.40;57.90;;;;;;4921120;28;94764;-40
2022/05/22 08:47:59;;;;;;;96.35;55.25;;;21.40;58.20;;;;;;4922806;28;89396;-38
2022/05/22 08:50:25;;;;;;;101.20;55.92;;;21.40;59.30;;;;;;4924776;28;89923;-42
2022/05/22 08:52:55;;;;;;;93.90;55.33;;;21.50;59.90;;;;;;4923283;28;89954;-38
2022/05/22 08:58:56;;;;;;;95.82;54.80;;;21.50;60.10;;;;;;4925318;28;90792;-38
2022/05/22 09:01:06;;;;;;;103.88;60.85;;;21.60;59.40;;;;;;4922644;28;89984;-39
2022/05/22 09:03:39;;;;;;;106.22;63.33;;;21.60;59.20;;;;;;4921163;28;89880;-38
2022/05/22 09:06:06;;;;;;;104.15;60.65;;;21.70;59.70;;;;;;4923640;28;89637;-40
2022/05/22 09:08:38;;;;;;;102.20;59.55;;;21.70;58.90;;;;;;4926665;28;93102;-39
2022/05/22 09:11:22;;;;;;;100.80;59.15;;;21.80;58.70;;;;;;4925966;28;89926;-39
2022/05/22 09:14:23;;;;;;;99.88;57.28;;;21.80;58.30;;;;;;4921548;28;89623;-39
2022/05/22 09:17:11;;;;;;;97.07;57.50;;;21.80;58.20;;;;;;4927175;28;89981;-38
2022/05/22 09:19:54;;;;;;;97.70;57.05;;;21.80;58.00;;;;;;4928365;28;90489;-38
2022/05/22 09:22:32;;;;;;;98.00;56.53;;;21.90;57.80;;;;;;4927177;28;90952;-40
2022/05/22 09:24:58;;;;;;;97.82;56.30;;;21.80;58.10;;;;;;4915927;28;90576;-39
2022/05/22 09:27:38;;;;;;;94.35;55.80;;;21.90;58.20;;;;;;4925122;28;92333;-39
2022/05/22 09:30:34;;;;;;;95.28;55.80;;;21.80;57.60;;;;;;4925888;28;91906;-41
2022/05/22 09:33:08;;;;;;;95.38;55.80;;;21.90;57.60;;;;;;4910923;28;90831;-39
2022/05/22 09:35:56;;;;;;;100.72;56.72;;;21.90;57.50;;;;;;4919369;28;89880;-42
2022/05/22 09:38:59;;;;;;;98.28;56.17;;;21.90;58.00;;;;;;4921836;28;90188;-42
2022/05/22 09:41:35;;;;;;;97.05;55.67;;;22.00;57.50;;;;;;4919025;28;91316;-40
2022/05/22 09:44:09;;;;;;;100.50;55.90;;;22.00;57.10;;;;;;4923274;28;89556;-39
2022/05/22 09:47:16;;;;;;;98.53;55.05;;;22.00;56.50;;;;;;4925136;28;90026;-40
2022/05/22 09:50:20;;;;;;;95.15;55.47;;;22.10;56.60;;;;;;4927377;28;94690;-39
2022/05/22 09:53:00;;;;;;;107.38;56.08;;;22.10;56.40;;;;;;4923885;28;90883;-38
2022/05/22 09:55:42;;;;;;;105.70;56.40;;;22.10;56.20;;;;;;4910043;28;90427;-39
2022/05/22 09:58:28;;;;;;;99.93;55.88;;;22.20;56.40;;;;;;4906798;28;91580;-42
2022/05/22 10:01:01;;;;;;;96.50;56.00;;;22.20;56.20;;;;;;4922554;28;90160;-39
2022/05/22 10:03:48;;;;;;;99.18;55.58;;;22.20;55.90;;;;;;4918943;28;90592;-40
2022/05/22 10:06:22;;;;;;;98.97;55.55;;;22.20;56.20;;;;;;4928327;28;91631;-39
2022/05/22 10:09:29;;;;;;;96.40;55.92;;;22.20;56.10;;;;;;4921481;28;89382;-39
2022/05/22 10:12:18;;;;;;;95.72;55.28;;;22.30;56.10;;;;;;4926479;28;90132;-38
2022/05/22 10:14:53;;;;;;;96.15;55.38;;;22.30;55.80;;;;;;4927426;28;93448;-41
2022/05/22 10:17:50;;;;;;;98.45;55.55;;;22.30;56.20;;;;;;4929822;28;90733;-40
2022/05/22 10:20:22;;;;;;;96.63;55.08;;;22.30;55.80;;;;;;4931529;28;89741;-39
2022/05/22 10:23:06;;;;;;;97.57;55.38;;;22.40;56.00;;;;;;4928527;28;91037;-39
2022/05/22 10:26:21;;;;;;;99.53;56.05;;;22.40;55.90;;;;;;4929475;28;91004;-38
2022/05/22 10:29:29;;;;;;;96.13;55.53;;;22.40;55.80;;;;;;4932896;28;89952;-39
2022/05/22 10:32:08;;;;;;;94.88;55.30;;;22.40;55.90;;;;;;4916163;28;90650;-41
2022/05/22 10:34:55;;;;;;;94.78;55.42;;;22.40;55.80;;;;;;4922185;28;89982;-39
2022/05/22 10:37:28;;;;;;;96.97;54.97;;;22.50;55.80;;;;;;4934059;28;91500;-39
2022/05/22 10:39:54;;;;;;;95.18;55.33;;;22.50;55.90;;;;;;4929269;28;92706;-39
2022/05/22 10:45:24;;;;;;;96.38;55.63;;;22.50;55.80;;;;;;4931257;28;90984;-39
2022/05/22 10:47:53;;;;;;;96.40;55.53;;;22.60;55.50;;;;;;4931339;28;90864;-42
2022/05/22 10:50:28;;;;;;;95.03;55.42;;;22.50;55.70;;;;;;4935809;28;90511;-39
2022/05/22 10:52:54;;;;;;;96.40;55.45;;;22.60;55.60;;;;;;4929945;28;90233;-40
2022/05/22 10:56:04;;;;;;;95.25;55.55;;;22.60;55.60;;;;;;4921337;28;94355;-39
2022/05/22 10:58:32;;;;;;;95.60;55.35;;;22.70;55.70;;;;;;4930174;28;89985;-38
2022/05/22 11:01:01;;;;;;;95.95;55.80;;;22.70;55.50;;;;;;4922563;28;89695;-39
2022/05/22 11:03:32;;;;;;;95.90;55.35;;;22.70;55.50;;;;;;4929175;28;89526;-41
2022/05/22 11:06:01;;;;;;;97.15;55.58;;;22.70;55.40;;;;;;4928794;28;90824;-39
2022/05/22 11:08:32;;;;;;;94.82;55.13;;;22.80;55.50;;;;;;4931656;28;90010;-40
2022/05/22 11:11:16;;;;;;;95.07;55.42;;;22.80;55.40;;;;;;4930940;28;90727;-39
2022/05/22 11:13:42;;;;;;;93.50;55.33;;;22.80;55.40;;;;;;4933517;28;89929;-39
2022/05/22 11:16:17;;;;;;;94.00;55.35;;;22.80;55.30;;;;;;4936763;28;89616;-39
2022/05/22 11:18:44;;;;;;;96.75;55.60;;;22.90;55.20;;;;;;4932875;28;90222;-42
2022/05/22 11:21:31;;;;;;;94.97;55.90;;;22.90;55.00;;;;;;4931420;28;89675;-39
2022/05/22 11:24:15;;;;;;;95.78;55.38;;;22.90;55.10;;;;;;4932214;28;92423;-40
2022/05/22 11:27:05;;;;;;;94.90;55.47;;;23.00;55.10;;;;;;4933667;28;89492;-38
2022/05/22 11:30:06;;;;;;;94.43;55.53;;;23.00;55.00;;;;;;4933122;28;89155;-40
2022/05/22 11:33:00;;;;;;;96.07;55.47;;;23.00;55.00;;;;;;4921403;28;90340;-38
2022/05/22 11:35:53;;;;;;;96.28;55.67;;;23.10;55.00;;;;;;4928265;28;89961;-39
2022/05/22 11:38:42;;;;;;;96.82;55.92;;;23.10;54.80;;;;;;4930495;28;91058;-40
2022/05/22 11:41:37;;;;;;;96.38;55.80;;;23.20;54.60;;;;;;4929658;28;90819;-41
2022/05/22 11:44:41;;;;;;;96.28;55.75;;;23.30;54.60;;;;;;4931845;28;90723;-40
2022/05/22 11:47:44;;;;;;;95.95;55.60;;;23.30;54.40;;;;;;4935418;28;89796;-41
2022/05/22 11:50:29;;;;;;;95.05;55.35;;;23.30;54.20;;;;;;4934780;28;91108;-40
2022/05/22 11:53:32;;;;;;;98.40;56.00;;;23.40;54.20;;;;;;4931209;28;91493;-39
2022/05/22 11:56:26;;;;;;;95.90;55.45;;;23.50;54.10;;;;;;4928811;28;90680;-39
2022/05/22 11:59:08;;;;;;;95.65;55.65;;;23.50;53.90;;;;;;4940650;28;90139;-39
2022/05/22 12:01:43;;;;;;;96.70;55.45;;;23.50;53.90;;;;;;4930072;28;90848;-39
2022/05/22 12:04:52;;;;;;;96.00;55.80;;;23.60;53.90;;;;;;4922651;28;91510;-39
2022/05/22 12:07:33;;;;;;;95.70;55.70;;;23.60;53.80;;;;;;4931576;28;90931;-39
2022/05/22 12:10:08;;;;;;;;;;;23.60;53.80;;;;;;4931734;28;89801;-41
2022/05/22 12:12:39;;;;;;;94.00;55.17;;;23.60;53.70;;;;;;4930416;28;90116;-39
2022/05/22 12:15:23;;;;;;;95.20;55.40;;;23.70;53.70;;;;;;4933304;28;89810;-42
2022/05/22 12:18:24;;;;;;;94.30;55.35;;;23.70;53.70;;;;;;4930966;28;90452;-41
2022/05/22 12:21:01;;;;;;;93.78;55.42;;;23.70;53.70;;;;;;4921601;28;93309;-38
2022/05/22 12:23:33;;;;;;;95.35;55.83;;;23.70;53.60;;;;;;4936007;28;89869;-39
2022/05/22 12:26:01;;;;;;;94.28;55.38;;;23.70;53.60;;;;;;4934996;28;91271;-38
2022/05/22 12:29:04;;;;;;;95.28;55.72;;;23.80;53.50;;;;;;4932840;28;89880;-38
2022/05/22 12:31:53;;;;;;;94.78;55.53;;;23.80;53.40;;;;;;4928057;28;89786;-38
2022/05/22 12:34:26;;;;;;;95.82;55.72;;;23.80;53.30;;;;;;4925523;28;92084;-41
2022/05/22 12:36:54;;;;;;;97.65;55.78;;;23.90;53.30;;;;;;4929991;28;90995;-39
2022/05/22 12:39:24;;;;;;;94.85;55.83;;;23.90;53.30;;;;;;4927966;28;89912;-41
2022/05/22 12:42:01;;;;;;;95.78;55.53;;;23.90;53.30;;;;;;4931261;28;90036;-39
2022/05/22 12:44:31;;;;;;;94.82;55.53;;;24.00;53.30;;;;;;4933571;28;90807;-41
2022/05/22 12:46:57;;;;;;;94.28;55.38;;;23.90;53.30;;;;;;4930356;28;89981;-41
2022/05/22 12:49:25;;;;;;;94.78;55.63;;;24.00;53.30;;;;;;4939967;28;90169;-40
2022/05/22 12:52:21;;;;;;;95.20;55.55;;;24.00;53.20;;;;;;4936232;28;89020;-39
2022/05/22 12:54:56;;;;;;;95.53;55.53;;;24.00;53.20;;;;;;4917923;28;91294;-39
2022/05/22 12:57:22;;;;;;;95.20;55.78;;;24.00;53.20;;;;;;4938654;28;90801;-39
2022/05/22 12:59:58;;;;;;;95.00;55.63;;;24.00;53.30;;;;;;4933635;28;91404;-43
2022/05/22 13:02:37;;;;;;;94.65;55.53;;;24.00;53.20;;;;;;4919595;28;89945;-38
2022/05/22 13:05:21;;;;;;;94.65;55.67;;;24.00;53.30;;;;;;4929040;28;90564;-39
2022/05/22 13:07:46;;;;;;;94.65;55.83;;;24.00;53.20;;;;;;4927822;28;90300;-39